sensor_id;sensor_type;location;lat;lon;timestamp;P1;durP1;ratioP1;P2;durP2;ratioP2
15526;SDS011;7865;50.918;4.510;2023-04-26T00:02:04;16.60;;;8.40;;
15526;SDS011;7865;50.918;4.510;2023-04-26T00:07:05;10.47;;;5.70;;
15526;SDS011;7865;50.918;4.510;2023-04-26T00:12:07;13.50;;;7.07;;
15526;SDS011;7865;50.918;4.510;2023-04-26T00:17:10;12.67;;;6.00;;
15526;SDS011;7865;50.918;4.510;2023-04-26T00:22:11;11.37;;;5.67;;
15526;SDS011;7865;50.918;4.510;2023-04-26T00:27:12;11.30;;;6.40;;
15526;SDS011;7865;50.918;4.510;2023-04-26T00:32:14;13.37;;;6.20;;
15526;SDS011;7865;50.918;4.510;2023-04-26T00:37:15;14.00;;;5.60;;
15526;SDS011;7865;50.918;4.510;2023-04-26T00:42:16;12.63;;;6.27;;
15526;SDS011;7865;50.918;4.510;2023-04-26T00:47:19;10.57;;;5.97;;
15526;SDS011;7865;50.918;4.510;2023-04-26T00:52:21;13.33;;;5.60;;
15526;SDS011;7865;50.918;4.510;2023-04-26T00:57:24;12.77;;;6.30;;
15526;SDS011;7865;50.918;4.510;2023-04-26T01:02:26;16.17;;;5.97;;
15526;SDS011;7865;50.918;4.510;2023-04-26T01:07:27;9.63;;;6.03;;
15526;SDS011;7865;50.918;4.510;2023-04-26T01:12:28;9.63;;;5.60;;
15526;SDS011;7865;50.918;4.510;2023-04-26T01:17:30;10.87;;;5.83;;
15526;SDS011;7865;50.918;4.510;2023-04-26T01:22:32;14.60;;;6.10;;
15526;SDS011;7865;50.918;4.510;2023-04-26T01:27:33;15.43;;;6.63;;
15526;SDS011;7865;50.918;4.510;2023-04-26T01:32:35;15.30;;;6.80;;
15526;SDS011;7865;50.918;4.510;2023-04-26T01:37:37;14.93;;;6.43;;
15526;SDS011;7865;50.918;4.510;2023-04-26T01:42:38;13.30;;;6.90;;
15526;SDS011;7865;50.918;4.510;2023-04-26T01:47:40;14.80;;;6.90;;
15526;SDS011;7865;50.918;4.510;2023-04-26T01:52:41;13.13;;;6.67;;
15526;SDS011;7865;50.918;4.510;2023-04-26T01:57:43;11.63;;;5.97;;
15526;SDS011;7865;50.918;4.510;2023-04-26T02:02:44;16.83;;;6.33;;
15526;SDS011;7865;50.918;4.510;2023-04-26T02:07:46;14.07;;;6.23;;
15526;SDS011;7865;50.918;4.510;2023-04-26T02:12:47;10.67;;;6.37;;
15526;SDS011;7865;50.918;4.510;2023-04-26T02:17:48;10.67;;;5.80;;
15526;SDS011;7865;50.918;4.510;2023-04-26T02:22:50;11.57;;;6.70;;
15526;SDS011;7865;50.918;4.510;2023-04-26T02:27:51;9.77;;;5.83;;
15526;SDS011;7865;50.918;4.510;2023-04-26T02:32:53;13.60;;;5.73;;
15526;SDS011;7865;50.918;4.510;2023-04-26T02:37:55;12.27;;;7.20;;
15526;SDS011;7865;50.918;4.510;2023-04-26T02:42:56;13.33;;;5.73;;
15526;SDS011;7865;50.918;4.510;2023-04-26T02:47:58;11.00;;;5.63;;
15526;SDS011;7865;50.918;4.510;2023-04-26T02:52:59;9.73;;;5.57;;
15526;SDS011;7865;50.918;4.510;2023-04-26T02:58:03;15.10;;;7.17;;
15526;SDS011;7865;50.918;4.510;2023-04-26T03:03:04;13.27;;;6.40;;
15526;SDS011;7865;50.918;4.510;2023-04-26T03:08:06;12.17;;;6.43;;
15526;SDS011;7865;50.918;4.510;2023-04-26T03:13:08;13.67;;;6.33;;
15526;SDS011;7865;50.918;4.510;2023-04-26T03:18:11;10.07;;;6.23;;
15526;SDS011;7865;50.918;4.510;2023-04-26T03:23:12;10.63;;;5.87;;
15526;SDS011;7865;50.918;4.510;2023-04-26T03:28:13;11.80;;;6.43;;
15526;SDS011;7865;50.918;4.510;2023-04-26T03:33:15;11.90;;;6.67;;
15526;SDS011;7865;50.918;4.510;2023-04-26T03:38:17;15.20;;;7.23;;
15526;SDS011;7865;50.918;4.510;2023-04-26T03:43:19;12.53;;;6.77;;
15526;SDS011;7865;50.918;4.510;2023-04-26T03:48:20;14.97;;;6.77;;
15526;SDS011;7865;50.918;4.510;2023-04-26T03:53:21;13.57;;;6.57;;
15526;SDS011;7865;50.918;4.510;2023-04-26T03:58:24;14.80;;;6.20;;
15526;SDS011;7865;50.918;4.510;2023-04-26T04:03:25;13.43;;;6.50;;
15526;SDS011;7865;50.918;4.510;2023-04-26T04:08:28;17.67;;;6.30;;
15526;SDS011;7865;50.918;4.510;2023-04-26T04:13:30;14.10;;;6.73;;
15526;SDS011;7865;50.918;4.510;2023-04-26T04:18:32;14.70;;;6.63;;
15526;SDS011;7865;50.918;4.510;2023-04-26T04:23:33;13.70;;;7.40;;
15526;SDS011;7865;50.918;4.510;2023-04-26T04:28:39;9.77;;;6.40;;
15526;SDS011;7865;50.918;4.510;2023-04-26T04:33:41;12.83;;;6.47;;
15526;SDS011;7865;50.918;4.510;2023-04-26T04:38:43;11.23;;;6.30;;
15526;SDS011;7865;50.918;4.510;2023-04-26T04:43:46;11.63;;;5.80;;
15526;SDS011;7865;50.918;4.510;2023-04-26T04:48:48;8.57;;;5.37;;
15526;SDS011;7865;50.918;4.510;2023-04-26T04:53:49;17.43;;;7.40;;
15526;SDS011;7865;50.918;4.510;2023-04-26T04:58:51;12.67;;;7.23;;
15526;SDS011;7865;50.918;4.510;2023-04-26T05:03:55;11.00;;;6.63;;
15526;SDS011;7865;50.918;4.510;2023-04-26T05:08:57;12.60;;;6.80;;
15526;SDS011;7865;50.918;4.510;2023-04-26T05:14:00;17.57;;;7.57;;
15526;SDS011;7865;50.918;4.510;2023-04-26T05:19:02;18.43;;;7.67;;
15526;SDS011;7865;50.918;4.510;2023-04-26T05:24:04;20.33;;;8.47;;
15526;SDS011;7865;50.918;4.510;2023-04-26T05:29:06;14.73;;;7.87;;
15526;SDS011;7865;50.918;4.510;2023-04-26T05:34:20;19.97;;;9.13;;
15526;SDS011;7865;50.918;4.510;2023-04-26T05:39:25;18.47;;;8.77;;
15526;SDS011;7865;50.918;4.510;2023-04-26T05:44:26;16.73;;;8.30;;
15526;SDS011;7865;50.918;4.510;2023-04-26T05:49:28;14.30;;;7.50;;
15526;SDS011;7865;50.918;4.510;2023-04-26T05:54:29;16.47;;;8.53;;
15526;SDS011;7865;50.918;4.510;2023-04-26T05:59:34;19.30;;;8.97;;
15526;SDS011;7865;50.918;4.510;2023-04-26T06:04:37;17.03;;;8.67;;
15526;SDS011;7865;50.918;4.510;2023-04-26T06:09:43;17.20;;;8.17;;
15526;SDS011;7865;50.918;4.510;2023-04-26T06:14:44;14.90;;;8.47;;
15526;SDS011;7865;50.918;4.510;2023-04-26T06:19:50;20.40;;;9.33;;
15526;SDS011;7865;50.918;4.510;2023-04-26T06:24:52;15.50;;;9.53;;
15526;SDS011;7865;50.918;4.510;2023-04-26T06:29:53;20.97;;;9.90;;
15526;SDS011;7865;50.918;4.510;2023-04-26T06:34:57;15.33;;;10.10;;
15526;SDS011;7865;50.918;4.510;2023-04-26T06:39:58;18.10;;;8.13;;
15526;SDS011;7865;50.918;4.510;2023-04-26T06:45:00;15.77;;;8.43;;
15526;SDS011;7865;50.918;4.510;2023-04-26T06:50:02;21.30;;;8.57;;
15526;SDS011;7865;50.918;4.510;2023-04-26T06:55:05;13.10;;;8.80;;
15526;SDS011;7865;50.918;4.510;2023-04-26T07:00:07;16.57;;;6.83;;
15526;SDS011;7865;50.918;4.510;2023-04-26T07:05:09;11.30;;;6.23;;
15526;SDS011;7865;50.918;4.510;2023-04-26T07:10:12;13.83;;;7.60;;
15526;SDS011;7865;50.918;4.510;2023-04-26T07:15:13;13.80;;;6.73;;
15526;SDS011;7865;50.918;4.510;2023-04-26T07:20:15;15.17;;;7.50;;
15526;SDS011;7865;50.918;4.510;2023-04-26T07:25:19;11.80;;;7.03;;
15526;SDS011;7865;50.918;4.510;2023-04-26T07:30:20;13.50;;;5.73;;
15526;SDS011;7865;50.918;4.510;2023-04-26T07:35:22;11.30;;;6.20;;
15526;SDS011;7865;50.918;4.510;2023-04-26T07:40:23;11.27;;;4.07;;
15526;SDS011;7865;50.918;4.510;2023-04-26T07:45:26;14.77;;;4.67;;
15526;SDS011;7865;50.918;4.510;2023-04-26T07:50:27;7.97;;;4.17;;
15526;SDS011;7865;50.918;4.510;2023-04-26T07:55:29;8.37;;;3.87;;
15526;SDS011;7865;50.918;4.510;2023-04-26T08:00:31;7.53;;;3.23;;
15526;SDS011;7865;50.918;4.510;2023-04-26T08:05:33;6.40;;;3.47;;
15526;SDS011;7865;50.918;4.510;2023-04-26T08:10:35;7.70;;;2.57;;
15526;SDS011;7865;50.918;4.510;2023-04-26T08:15:38;7.43;;;3.33;;
15526;SDS011;7865;50.918;4.510;2023-04-26T08:20:39;9.20;;;4.27;;
15526;SDS011;7865;50.918;4.510;2023-04-26T08:25:41;9.83;;;4.63;;
15526;SDS011;7865;50.918;4.510;2023-04-26T08:30:42;9.57;;;4.20;;
15526;SDS011;7865;50.918;4.510;2023-04-26T08:35:43;11.47;;;4.43;;
15526;SDS011;7865;50.918;4.510;2023-04-26T08:40:49;7.03;;;3.90;;
15526;SDS011;7865;50.918;4.510;2023-04-26T08:45:51;9.87;;;4.10;;
15526;SDS011;7865;50.918;4.510;2023-04-26T08:50:53;4.13;;;2.90;;
15526;SDS011;7865;50.918;4.510;2023-04-26T08:55:55;12.43;;;4.60;;
15526;SDS011;7865;50.918;4.510;2023-04-26T09:00:57;8.93;;;3.83;;
15526;SDS011;7865;50.918;4.510;2023-04-26T09:06:01;11.20;;;4.55;;
15526;SDS011;7865;50.918;4.510;2023-04-26T09:11:06;10.98;;;4.47;;
15526;SDS011;7865;50.918;4.510;2023-04-26T09:16:07;10.63;;;4.38;;
15526;SDS011;7865;50.918;4.510;2023-04-26T09:21:09;8.02;;;3.58;;
15526;SDS011;7865;50.918;4.510;2023-04-26T09:26:20;6.53;;;3.30;;
15526;SDS011;7865;50.918;4.510;2023-04-26T09:31:36;7.22;;;3.50;;
15526;SDS011;7865;50.918;4.510;2023-04-26T09:37:00;6.15;;;3.97;;
15526;SDS011;7865;50.918;4.510;2023-04-26T09:42:19;7.13;;;3.15;;
15526;SDS011;7865;50.918;4.510;2023-04-26T09:47:21;5.45;;;4.10;;
15526;SDS011;7865;50.918;4.510;2023-04-26T09:52:22;10.80;;;4.40;;
15526;SDS011;7865;50.918;4.510;2023-04-26T09:57:24;4.93;;;2.90;;
15526;SDS011;7865;50.918;4.510;2023-04-26T10:02:26;9.23;;;4.53;;
15526;SDS011;7865;50.918;4.510;2023-04-26T10:07:28;7.00;;;3.33;;
15526;SDS011;7865;50.918;4.510;2023-04-26T10:12:30;7.80;;;3.30;;
15526;SDS011;7865;50.918;4.510;2023-04-26T10:17:31;9.85;;;3.85;;
15526;SDS011;7865;50.918;4.510;2023-04-26T10:22:34;5.85;;;3.10;;
15526;SDS011;7865;50.918;4.510;2023-04-26T10:43:47;6.85;;;3.05;;
15526;SDS011;7865;50.918;4.510;2023-04-26T10:48:30;4.05;;;3.00;;
15526;SDS011;7865;50.918;4.510;2023-04-26T10:58:48;5.38;;;2.85;;
15526;SDS011;7865;50.918;4.510;2023-04-26T11:04:23;7.68;;;2.60;;
15526;SDS011;7865;50.918;4.510;2023-04-26T11:09:51;8.77;;;2.72;;
15526;SDS011;7865;50.918;4.510;2023-04-26T11:14:52;5.60;;;2.90;;
15526;SDS011;7865;50.918;4.510;2023-04-26T11:19:54;8.43;;;2.90;;
15526;SDS011;7865;50.918;4.510;2023-04-26T11:24:55;4.72;;;2.80;;
15526;SDS011;7865;50.918;4.510;2023-04-26T11:29:56;4.93;;;2.60;;
15526;SDS011;7865;50.918;4.510;2023-04-26T11:34:59;8.68;;;3.33;;
15526;SDS011;7865;50.918;4.510;2023-04-26T11:40:00;6.63;;;3.17;;
15526;SDS011;7865;50.918;4.510;2023-04-26T11:45:02;8.48;;;3.05;;
15526;SDS011;7865;50.918;4.510;2023-04-26T11:50:07;5.32;;;2.78;;
15526;SDS011;7865;50.918;4.510;2023-04-26T11:55:10;6.35;;;3.45;;
15526;SDS011;7865;50.918;4.510;2023-04-26T12:00:11;7.75;;;3.17;;
15526;SDS011;7865;50.918;4.510;2023-04-26T12:05:24;6.25;;;3.63;;
15526;SDS011;7865;50.918;4.510;2023-04-26T12:10:28;8.20;;;3.85;;
15526;SDS011;7865;50.918;4.510;2023-04-26T12:15:31;9.07;;;3.60;;
15526;SDS011;7865;50.918;4.510;2023-04-26T12:20:37;6.97;;;3.22;;
15526;SDS011;7865;50.918;4.510;2023-04-26T12:25:52;4.60;;;2.95;;
15526;SDS011;7865;50.918;4.510;2023-04-26T12:30:59;6.28;;;3.50;;
15526;SDS011;7865;50.918;4.510;2023-04-26T12:36:11;4.95;;;3.53;;
15526;SDS011;7865;50.918;4.510;2023-04-26T12:41:12;7.22;;;3.75;;
15526;SDS011;7865;50.918;4.510;2023-04-26T12:46:14;4.65;;;3.40;;
15526;SDS011;7865;50.918;4.510;2023-04-26T12:51:15;6.57;;;3.90;;
15526;SDS011;7865;50.918;4.510;2023-04-26T12:56:17;6.65;;;3.78;;
15526;SDS011;7865;50.918;4.510;2023-04-26T13:01:19;8.10;;;4.15;;
15526;SDS011;7865;50.918;4.510;2023-04-26T13:06:20;4.80;;;3.17;;
15526;SDS011;7865;50.918;4.510;2023-04-26T13:11:21;6.18;;;3.17;;
15526;SDS011;7865;50.918;4.510;2023-04-26T13:16:23;6.18;;;3.38;;
15526;SDS011;7865;50.918;4.510;2023-04-26T13:21:24;4.18;;;2.55;;
15526;SDS011;7865;50.918;4.510;2023-04-26T13:26:26;7.13;;;3.80;;
15526;SDS011;7865;50.918;4.510;2023-04-26T13:31:28;6.80;;;3.45;;
15526;SDS011;7865;50.918;4.510;2023-04-26T13:36:30;8.80;;;3.58;;
15526;SDS011;7865;50.918;4.510;2023-04-26T13:41:32;10.82;;;3.00;;
15526;SDS011;7865;50.918;4.510;2023-04-26T13:46:34;4.85;;;2.92;;
15526;SDS011;7865;50.918;4.510;2023-04-26T13:51:36;7.82;;;3.25;;
15526;SDS011;7865;50.918;4.510;2023-04-26T13:56:37;6.25;;;3.33;;
15526;SDS011;7865;50.918;4.510;2023-04-26T14:01:39;5.35;;;3.53;;
15526;SDS011;7865;50.918;4.510;2023-04-26T14:06:41;4.93;;;3.80;;
15526;SDS011;7865;50.918;4.510;2023-04-26T14:11:42;5.53;;;3.28;;
15526;SDS011;7865;50.918;4.510;2023-04-26T14:16:47;9.43;;;4.38;;
15526;SDS011;7865;50.918;4.510;2023-04-26T14:21:49;7.47;;;4.25;;
15526;SDS011;7865;50.918;4.510;2023-04-26T14:26:50;4.63;;;3.42;;
15526;SDS011;7865;50.918;4.510;2023-04-26T14:31:51;8.40;;;4.20;;
15526;SDS011;7865;50.918;4.510;2023-04-26T14:36:53;7.00;;;3.80;;
15526;SDS011;7865;50.918;4.510;2023-04-26T14:41:57;11.77;;;4.28;;
15526;SDS011;7865;50.918;4.510;2023-04-26T14:46:58;8.25;;;4.03;;
15526;SDS011;7865;50.918;4.510;2023-04-26T14:51:59;5.05;;;2.90;;
15526;SDS011;7865;50.918;4.510;2023-04-26T14:57:01;6.55;;;3.88;;
15526;SDS011;7865;50.918;4.510;2023-04-26T15:02:02;6.85;;;4.18;;
15526;SDS011;7865;50.918;4.510;2023-04-26T15:07:04;8.85;;;3.70;;
15526;SDS011;7865;50.918;4.510;2023-04-26T15:12:06;8.23;;;4.03;;
15526;SDS011;7865;50.918;4.510;2023-04-26T15:17:07;11.10;;;4.65;;
15526;SDS011;7865;50.918;4.510;2023-04-26T15:22:09;7.32;;;4.28;;
15526;SDS011;7865;50.918;4.510;2023-04-26T15:27:10;6.35;;;3.58;;
15526;SDS011;7865;50.918;4.510;2023-04-26T15:32:12;6.95;;;3.33;;
15526;SDS011;7865;50.918;4.510;2023-04-26T15:37:13;6.50;;;3.67;;
15526;SDS011;7865;50.918;4.510;2023-04-26T15:42:15;6.82;;;3.63;;
15526;SDS011;7865;50.918;4.510;2023-04-26T15:47:16;5.80;;;3.50;;
15526;SDS011;7865;50.918;4.510;2023-04-26T15:52:18;4.88;;;3.60;;
15526;SDS011;7865;50.918;4.510;2023-04-26T15:57:19;9.10;;;3.63;;
15526;SDS011;7865;50.918;4.510;2023-04-26T16:02:20;7.82;;;3.55;;
15526;SDS011;7865;50.918;4.510;2023-04-26T16:07:22;6.65;;;3.15;;
15526;SDS011;7865;50.918;4.510;2023-04-26T16:12:23;7.47;;;3.75;;
15526;SDS011;7865;50.918;4.510;2023-04-26T16:17:24;6.97;;;3.30;;
15526;SDS011;7865;50.918;4.510;2023-04-26T16:22:26;11.10;;;4.22;;
15526;SDS011;7865;50.918;4.510;2023-04-26T16:27:27;9.52;;;4.15;;
15526;SDS011;7865;50.918;4.510;2023-04-26T16:32:29;7.22;;;4.20;;
15526;SDS011;7865;50.918;4.510;2023-04-26T16:37:31;7.07;;;3.63;;
15526;SDS011;7865;50.918;4.510;2023-04-26T16:42:32;4.80;;;3.63;;
15526;SDS011;7865;50.918;4.510;2023-04-26T16:47:33;6.73;;;3.80;;
15526;SDS011;7865;50.918;4.510;2023-04-26T16:52:34;10.47;;;3.97;;
15526;SDS011;7865;50.918;4.510;2023-04-26T16:57:36;8.17;;;3.60;;
15526;SDS011;7865;50.918;4.510;2023-04-26T17:02:37;7.27;;;3.63;;
15526;SDS011;7865;50.918;4.510;2023-04-26T17:07:40;7.70;;;3.80;;
15526;SDS011;7865;50.918;4.510;2023-04-26T17:12:41;6.37;;;3.77;;
15526;SDS011;7865;50.918;4.510;2023-04-26T17:17:43;10.37;;;4.10;;
15526;SDS011;7865;50.918;4.510;2023-04-26T17:22:44;10.30;;;4.50;;
15526;SDS011;7865;50.918;4.510;2023-04-26T17:27:45;7.10;;;4.60;;
15526;SDS011;7865;50.918;4.510;2023-04-26T17:32:47;9.43;;;4.87;;
15526;SDS011;7865;50.918;4.510;2023-04-26T17:37:48;9.03;;;4.53;;
15526;SDS011;7865;50.918;4.510;2023-04-26T17:42:50;7.60;;;4.97;;
15526;SDS011;7865;50.918;4.510;2023-04-26T17:47:51;9.20;;;4.90;;
15526;SDS011;7865;50.918;4.510;2023-04-26T17:52:53;9.20;;;5.00;;
15526;SDS011;7865;50.918;4.510;2023-04-26T17:57:54;8.70;;;5.00;;
15526;SDS011;7865;50.918;4.510;2023-04-26T18:02:55;7.83;;;5.40;;
15526;SDS011;7865;50.918;4.510;2023-04-26T18:07:57;8.77;;;5.90;;
15526;SDS011;7865;50.918;4.510;2023-04-26T18:12:59;9.27;;;5.37;;
15526;SDS011;7865;50.918;4.510;2023-04-26T18:18:01;7.70;;;5.83;;
15526;SDS011;7865;50.918;4.510;2023-04-26T18:23:05;8.73;;;5.40;;
15526;SDS011;7865;50.918;4.510;2023-04-26T18:28:06;8.03;;;6.10;;
15526;SDS011;7865;50.918;4.510;2023-04-26T18:33:08;7.40;;;5.97;;
15526;SDS011;7865;50.918;4.510;2023-04-26T18:38:09;11.50;;;7.10;;
15526;SDS011;7865;50.918;4.510;2023-04-26T18:43:11;8.80;;;5.97;;
15526;SDS011;7865;50.918;4.510;2023-04-26T18:48:12;11.03;;;6.03;;
15526;SDS011;7865;50.918;4.510;2023-04-26T18:53:13;10.13;;;6.17;;
15526;SDS011;7865;50.918;4.510;2023-04-26T18:58:15;10.50;;;6.70;;
15526;SDS011;7865;50.918;4.510;2023-04-26T19:03:16;7.77;;;6.60;;
15526;SDS011;7865;50.918;4.510;2023-04-26T19:08:18;13.00;;;6.30;;
15526;SDS011;7865;50.918;4.510;2023-04-26T19:13:20;8.83;;;6.40;;
15526;SDS011;7865;50.918;4.510;2023-04-26T19:18:21;9.03;;;6.23;;
15526;SDS011;7865;50.918;4.510;2023-04-26T19:23:23;8.70;;;6.73;;
15526;SDS011;7865;50.918;4.510;2023-04-26T19:28:24;13.97;;;7.43;;
15526;SDS011;7865;50.918;4.510;2023-04-26T19:33:25;9.53;;;7.00;;
15526;SDS011;7865;50.918;4.510;2023-04-26T19:38:27;9.33;;;6.30;;
15526;SDS011;7865;50.918;4.510;2023-04-26T19:43:28;10.07;;;6.73;;
15526;SDS011;7865;50.918;4.510;2023-04-26T19:48:30;15.90;;;6.03;;
15526;SDS011;7865;50.918;4.510;2023-04-26T19:53:32;8.37;;;6.97;;
15526;SDS011;7865;50.918;4.510;2023-04-26T19:58:35;9.33;;;6.13;;
15526;SDS011;7865;50.918;4.510;2023-04-26T20:03:37;11.97;;;6.70;;
15526;SDS011;7865;50.918;4.510;2023-04-26T20:08:40;6.97;;;5.70;;
15526;SDS011;7865;50.918;4.510;2023-04-26T20:13:41;12.50;;;6.33;;
15526;SDS011;7865;50.918;4.510;2023-04-26T20:18:43;10.27;;;6.23;;
15526;SDS011;7865;50.918;4.510;2023-04-26T20:23:45;10.10;;;6.30;;
15526;SDS011;7865;50.918;4.510;2023-04-26T20:28:46;10.73;;;6.40;;
15526;SDS011;7865;50.918;4.510;2023-04-26T20:33:48;9.63;;;6.30;;
15526;SDS011;7865;50.918;4.510;2023-04-26T20:38:49;9.00;;;5.93;;
15526;SDS011;7865;50.918;4.510;2023-04-26T20:43:51;15.93;;;6.17;;
15526;SDS011;7865;50.918;4.510;2023-04-26T20:48:53;8.57;;;6.23;;
15526;SDS011;7865;50.918;4.510;2023-04-26T20:53:54;10.27;;;6.00;;
15526;SDS011;7865;50.918;4.510;2023-04-26T20:58:56;8.60;;;6.53;;
15526;SDS011;7865;50.918;4.510;2023-04-26T21:03:57;8.73;;;5.77;;
15526;SDS011;7865;50.918;4.510;2023-04-26T21:08:59;10.60;;;6.10;;
15526;SDS011;7865;50.918;4.510;2023-04-26T21:14:01;7.50;;;5.77;;
15526;SDS011;7865;50.918;4.510;2023-04-26T21:19:02;9.53;;;6.03;;
15526;SDS011;7865;50.918;4.510;2023-04-26T21:24:05;10.23;;;5.77;;
15526;SDS011;7865;50.918;4.510;2023-04-26T21:29:06;11.43;;;5.90;;
15526;SDS011;7865;50.918;4.510;2023-04-26T21:34:08;15.13;;;6.57;;
15526;SDS011;7865;50.918;4.510;2023-04-26T21:39:10;8.00;;;5.83;;
15526;SDS011;7865;50.918;4.510;2023-04-26T21:44:12;10.23;;;6.30;;
15526;SDS011;7865;50.918;4.510;2023-04-26T21:49:13;11.13;;;6.40;;
15526;SDS011;7865;50.918;4.510;2023-04-26T21:54:14;9.60;;;6.60;;
15526;SDS011;7865;50.918;4.510;2023-04-26T21:59:15;13.33;;;8.80;;
15526;SDS011;7865;50.918;4.510;2023-04-26T22:04:17;12.27;;;7.67;;
15526;SDS011;7865;50.918;4.510;2023-04-26T22:09:18;12.37;;;8.30;;
15526;SDS011;7865;50.918;4.510;2023-04-26T22:14:21;13.00;;;8.33;;
15526;SDS011;7865;50.918;4.510;2023-04-26T22:19:22;15.47;;;7.80;;
15526;SDS011;7865;50.918;4.510;2023-04-26T22:24:23;13.23;;;7.50;;
15526;SDS011;7865;50.918;4.510;2023-04-26T22:29:24;11.57;;;7.17;;
15526;SDS011;7865;50.918;4.510;2023-04-26T22:34:26;9.73;;;6.80;;
15526;SDS011;7865;50.918;4.510;2023-04-26T22:39:27;13.67;;;7.77;;
15526;SDS011;7865;50.918;4.510;2023-04-26T22:44:29;13.57;;;7.73;;
15526;SDS011;7865;50.918;4.510;2023-04-26T22:49:30;14.13;;;8.57;;
15526;SDS011;7865;50.918;4.510;2023-04-26T22:54:31;10.67;;;7.53;;
15526;SDS011;7865;50.918;4.510;2023-04-26T22:59:32;14.07;;;9.83;;
15526;SDS011;7865;50.918;4.510;2023-04-26T23:04:34;9.77;;;7.97;;
15526;SDS011;7865;50.918;4.510;2023-04-26T23:09:35;13.57;;;9.30;;
15526;SDS011;7865;50.918;4.510;2023-04-26T23:14:37;13.53;;;8.67;;
15526;SDS011;7865;50.918;4.510;2023-04-26T23:19:38;13.20;;;8.37;;
15526;SDS011;7865;50.918;4.510;2023-04-26T23:24:40;17.53;;;8.77;;
15526;SDS011;7865;50.918;4.510;2023-04-26T23:29:41;12.80;;;8.33;;
15526;SDS011;7865;50.918;4.510;2023-04-26T23:34:42;13.47;;;8.13;;
15526;SDS011;7865;50.918;4.510;2023-04-26T23:39:44;10.63;;;7.70;;
15526;SDS011;7865;50.918;4.510;2023-04-26T23:44:45;10.97;;;8.10;;
15526;SDS011;7865;50.918;4.510;2023-04-26T23:49:47;13.73;;;8.60;;
15526;SDS011;7865;50.918;4.510;2023-04-26T23:54:48;17.77;;;8.47;;
15526;SDS011;7865;50.918;4.510;2023-04-26T23:59:49;11.30;;;7.93;;
